createdAt,value
2018-05-25T00:02:27.118Z,16.20
2018-05-25T00:04:54.732Z,16.20
2018-05-25T00:07:23.826Z,16.20
2018-05-25T00:09:52.215Z,16.10
2018-05-25T00:12:19.833Z,16.10
2018-05-25T00:14:47.414Z,16.10
2018-05-25T00:17:15.043Z,16.10
2018-05-25T00:19:42.624Z,16.10
2018-05-25T00:22:10.212Z,16.10
2018-05-25T00:24:37.835Z,16.00
2018-05-25T00:27:05.418Z,16.00
2018-05-25T00:29:33.794Z,15.90
2018-05-25T00:32:01.412Z,15.90
2018-05-25T00:34:29.030Z,15.80
2018-05-25T00:36:56.634Z,15.80
2018-05-25T00:39:24.266Z,15.80
2018-05-25T00:41:51.876Z,15.70
2018-05-25T00:44:19.432Z,15.70
2018-05-25T00:46:47.066Z,15.70
2018-05-25T00:49:14.706Z,15.70
2018-05-25T00:51:52.372Z,15.70
2018-05-25T00:54:20.740Z,15.60
2018-05-25T00:56:49.866Z,15.50
2018-05-25T00:59:17.469Z,15.50
2018-05-25T01:01:45.115Z,15.50
2018-05-25T01:04:12.744Z,15.50
2018-05-25T01:06:41.110Z,15.40
2018-05-25T01:09:09.526Z,15.40
2018-05-25T01:11:37.145Z,15.40
2018-05-25T01:14:04.730Z,15.40
2018-05-25T01:16:32.333Z,15.30
2018-05-25T01:18:59.953Z,15.30
2018-05-25T01:21:27.575Z,15.30
2018-05-25T01:23:55.177Z,15.30
2018-05-25T01:26:22.809Z,15.30
2018-05-25T01:28:50.411Z,15.30
2018-05-25T01:31:18.019Z,15.30
2018-05-25T01:33:45.665Z,15.30
2018-05-25T01:36:13.304Z,15.30
2018-05-25T01:38:40.877Z,15.30
2018-05-25T01:41:08.524Z,15.30
2018-05-25T01:43:36.165Z,15.30
2018-05-25T01:46:03.789Z,15.30
2018-05-25T01:48:31.388Z,15.30
2018-05-25T01:50:58.994Z,15.30
2018-05-25T01:53:26.589Z,15.30
2018-05-25T01:55:55.045Z,15.20
2018-05-25T01:58:22.607Z,15.20
2018-05-25T02:00:50.253Z,15.20
2018-05-25T02:03:17.877Z,15.10
2018-05-25T02:05:45.474Z,15.10
2018-05-25T02:08:13.106Z,15.00
2018-05-25T02:10:40.711Z,15.00
2018-05-25T02:13:08.342Z,14.90
2018-05-25T02:15:35.973Z,14.90
2018-05-25T02:18:09.839Z,14.80
2018-05-25T02:20:37.432Z,14.80
2018-05-25T02:23:05.821Z,14.70
2018-05-25T02:25:34.179Z,14.70
2018-05-25T02:28:01.789Z,14.70
2018-05-25T02:30:29.340Z,14.70
2018-05-25T02:32:56.985Z,14.70
2018-05-25T02:35:25.535Z,14.70
2018-05-25T02:37:53.949Z,14.60
2018-05-25T02:40:21.559Z,14.60
2018-05-25T02:42:49.140Z,14.60
2018-05-25T02:45:16.779Z,14.60
2018-05-25T02:47:44.404Z,14.60
2018-05-25T02:50:12.023Z,14.60
2018-05-25T02:52:39.675Z,14.50
2018-05-25T02:55:07.285Z,14.50
2018-05-25T02:57:36.403Z,14.50
2018-05-25T03:00:03.997Z,14.50
2018-05-25T03:02:31.622Z,14.50
2018-05-25T03:04:59.239Z,14.40
2018-05-25T03:07:27.627Z,14.40
2018-05-25T03:09:55.989Z,14.40
2018-05-25T03:12:23.569Z,14.40
2018-05-25T03:14:51.973Z,14.40
2018-05-25T03:17:19.559Z,14.40
2018-05-25T03:19:47.164Z,14.40
2018-05-25T03:22:14.795Z,14.40
2018-05-25T03:24:42.407Z,14.40
2018-05-25T03:27:10.042Z,14.40
2018-05-25T03:29:38.393Z,14.40
2018-05-25T03:32:06.011Z,14.40
2018-05-25T03:34:33.616Z,14.40
2018-05-25T03:37:01.184Z,14.40
2018-05-25T03:39:28.805Z,14.40
2018-05-25T03:41:56.400Z,14.40
2018-05-25T03:44:24.027Z,14.50
2018-05-25T03:46:51.652Z,14.50
2018-05-25T03:49:19.284Z,14.50
2018-05-25T03:51:46.863Z,14.50
2018-05-25T03:54:15.234Z,14.60
2018-05-25T03:56:43.583Z,14.70
2018-05-25T03:59:23.113Z,14.70
2018-05-25T04:01:55.579Z,14.70
2018-05-25T04:04:23.189Z,14.80
2018-05-25T04:06:51.615Z,14.80
2018-05-25T04:09:19.216Z,14.80
2018-05-25T04:11:48.464Z,14.90
2018-05-25T04:14:16.089Z,14.90
2018-05-25T04:16:43.704Z,15.00
2018-05-25T04:19:11.343Z,15.00
2018-05-25T04:21:38.957Z,15.20
2018-05-25T04:24:06.563Z,15.20
2018-05-25T04:26:34.208Z,15.40
2018-05-25T04:29:02.544Z,15.50
2018-05-25T04:31:30.179Z,15.50
2018-05-25T04:33:57.798Z,15.60
2018-05-25T04:36:26.229Z,16.50
2018-05-25T04:38:53.852Z,16.50
2018-05-25T04:41:22.240Z,17.70
2018-05-25T04:43:49.822Z,17.70
2018-05-25T04:46:17.491Z,18.10
2018-05-25T04:48:45.114Z,18.30
2018-05-25T04:51:13.458Z,18.50
2018-05-25T04:53:41.037Z,18.50
2018-05-25T04:56:09.397Z,19.20
2018-05-25T04:58:36.974Z,19.20
2018-05-25T05:01:05.422Z,20.40
2018-05-25T05:03:33.040Z,20.40
2018-05-25T05:06:00.608Z,20.90
2018-05-25T05:08:28.242Z,21.10
2018-05-25T05:10:55.891Z,21.50
2018-05-25T05:13:23.513Z,22.10
2018-05-25T05:15:51.134Z,22.80
2018-05-25T05:18:19.534Z,23.70
2018-05-25T05:21:12.759Z,23.70
2018-05-25T05:23:40.368Z,24.20
2018-05-25T05:26:07.978Z,24.60
2018-05-25T05:28:35.580Z,25.20
2018-05-25T05:31:03.180Z,25.60
2018-05-25T05:33:30.820Z,26.10
2018-05-25T05:35:58.452Z,26.00
2018-05-25T05:38:27.218Z,24.60
2018-05-25T05:40:55.628Z,23.50
2018-05-25T05:43:23.266Z,23.50
2018-05-25T05:45:58.383Z,23.00
2018-05-25T05:48:26.036Z,22.50
2018-05-25T05:50:53.658Z,22.20
2018-05-25T05:53:22.008Z,21.90
2018-05-25T05:55:50.390Z,22.20
2018-05-25T05:58:18.756Z,22.70
2018-05-25T06:00:50.414Z,23.60
2018-05-25T06:03:18.784Z,24.50
2018-05-25T06:05:46.622Z,24.50
2018-05-25T06:08:14.264Z,25.50
2018-05-25T06:10:41.931Z,26.80
2018-05-25T06:13:09.590Z,27.30
2018-05-25T06:15:37.196Z,27.10
2018-05-25T06:18:05.598Z,27.10
2018-05-25T06:20:37.864Z,27.10
2018-05-25T06:23:06.228Z,28.10
2018-05-25T06:25:33.876Z,28.10
2018-05-25T06:28:01.502Z,29.10
2018-05-25T06:30:29.270Z,29.90
2018-05-25T06:32:56.868Z,29.90
2018-05-25T06:35:24.469Z,29.40
2018-05-25T06:37:52.080Z,28.40
2018-05-25T06:40:19.686Z,27.40
2018-05-25T06:42:52.777Z,26.80
2018-05-25T06:45:20.465Z,27.10
2018-05-25T06:47:48.125Z,27.20
2018-05-25T06:50:15.718Z,26.70
2018-05-25T06:52:43.344Z,26.60
2018-05-25T06:55:10.944Z,26.30
2018-05-25T06:57:38.568Z,26.30
2018-05-25T07:00:06.176Z,26.10
2018-05-25T07:02:34.621Z,25.00
2018-05-25T07:05:06.245Z,25.00
2018-05-25T07:07:34.334Z,24.30
2018-05-25T07:10:04.080Z,23.70
2018-05-25T07:12:31.732Z,23.70
2018-05-25T07:14:59.324Z,23.80
2018-05-25T07:17:27.674Z,24.00
2018-05-25T07:19:55.298Z,24.00
2018-05-25T07:22:22.922Z,24.00
2018-05-25T07:24:51.306Z,23.90
2018-05-25T07:27:19.664Z,24.00
2018-05-25T07:29:47.280Z,24.00
2018-05-25T07:32:14.911Z,23.80
2018-05-25T07:34:43.272Z,23.60
2018-05-25T07:37:10.911Z,23.60
2018-05-25T07:39:38.501Z,23.80
2018-05-25T07:42:06.915Z,23.60
2018-05-25T07:44:35.473Z,23.60
2018-05-25T07:47:03.115Z,23.60
2018-05-25T07:49:30.698Z,23.50
2018-05-25T07:51:58.306Z,23.60
2018-05-25T07:54:25.970Z,23.50
2018-05-25T07:56:53.555Z,23.50
2018-05-25T07:59:21.192Z,23.70
2018-05-25T08:01:48.837Z,23.90
2018-05-25T08:04:16.460Z,23.90
2018-05-25T08:06:44.861Z,23.50
2018-05-25T08:09:12.469Z,23.50
2018-05-25T08:11:40.062Z,23.60
2018-05-25T08:14:08.409Z,23.60
2018-05-25T08:16:36.046Z,23.50
2018-05-25T08:19:03.710Z,23.70
2018-05-25T08:21:31.328Z,23.60
2018-05-25T08:23:59.748Z,23.40
2018-05-25T08:26:27.385Z,23.30
2018-05-25T08:28:55.005Z,23.30
2018-05-25T08:31:22.634Z,23.40
2018-05-25T08:33:53.598Z,23.60
2018-05-25T08:36:21.211Z,23.80
2018-05-25T08:38:48.822Z,24.00
2018-05-25T08:41:16.404Z,24.10
2018-05-25T08:43:44.791Z,24.60
2018-05-25T08:46:12.391Z,24.60
2018-05-25T08:48:52.851Z,24.70
2018-05-25T08:51:20.420Z,24.80
2018-05-25T08:53:47.970Z,24.80
2018-05-25T08:56:18.906Z,24.90
2018-05-25T08:58:46.512Z,24.70
2018-05-25T09:01:14.903Z,24.30
2018-05-25T09:03:49.967Z,24.00
2018-05-25T09:06:17.576Z,24.00
2018-05-25T09:08:51.680Z,23.90
2018-05-25T09:11:19.293Z,23.90
2018-05-25T09:13:46.964Z,23.60
2018-05-25T09:16:14.552Z,23.50
2018-05-25T09:18:43.177Z,23.50
2018-05-25T09:21:10.822Z,23.40
2018-05-25T09:23:38.432Z,23.50
2018-05-25T09:26:09.229Z,23.90
2018-05-25T09:28:36.927Z,24.00
2018-05-25T09:31:04.502Z,24.20
2018-05-25T09:33:32.094Z,24.20
2018-05-25T09:35:59.678Z,24.10
2018-05-25T09:38:28.062Z,23.90
2018-05-25T09:40:56.415Z,24.10
2018-05-25T09:43:24.033Z,24.10
2018-05-25T09:45:51.636Z,24.00
2018-05-25T09:48:19.256Z,23.90
2018-05-25T09:50:46.860Z,23.80
2018-05-25T09:53:14.482Z,23.80
2018-05-25T09:55:42.096Z,24.00
2018-05-25T09:58:10.528Z,24.00
2018-05-25T10:00:38.138Z,24.00
2018-05-25T10:03:06.526Z,23.70
2018-05-25T10:05:34.845Z,24.20
2018-05-25T10:08:02.454Z,24.20
2018-05-25T10:10:30.786Z,24.70
2018-05-25T10:12:58.368Z,24.70
2018-05-25T10:15:25.970Z,25.20
2018-05-25T10:17:53.542Z,25.40
2018-05-25T10:20:21.159Z,25.50
2018-05-25T10:22:48.780Z,25.50
2018-05-25T10:25:16.440Z,25.60
2018-05-25T10:27:44.026Z,25.50
2018-05-25T10:30:11.650Z,25.60
2018-05-25T10:32:39.279Z,25.80
2018-05-25T10:35:07.655Z,25.90
2018-05-25T10:37:35.278Z,25.90
2018-05-25T10:40:02.890Z,25.80
2018-05-25T10:42:31.271Z,25.10
2018-05-25T10:44:59.656Z,25.30
2018-05-25T10:47:27.248Z,25.30
2018-05-25T10:49:54.860Z,25.80
2018-05-25T10:52:23.254Z,25.80
2018-05-25T10:54:50.860Z,25.80
2018-05-25T10:57:18.422Z,25.70
2018-05-25T10:59:46.088Z,25.80
2018-05-25T11:02:13.717Z,25.40
2018-05-25T11:04:41.376Z,25.30
2018-05-25T11:07:08.984Z,25.10
2018-05-25T11:09:36.598Z,24.90
2018-05-25T11:12:04.193Z,25.10
2018-05-25T11:14:31.794Z,25.10
2018-05-25T11:17:00.180Z,25.20
2018-05-25T11:19:27.781Z,25.20
2018-05-25T11:21:55.423Z,25.70
2018-05-25T11:24:23.017Z,26.20
2018-05-25T11:26:50.912Z,26.30
2018-05-25T11:29:36.188Z,25.80
2018-05-25T11:32:04.536Z,25.90
2018-05-25T11:34:32.131Z,25.80
2018-05-25T11:37:00.495Z,24.70
2018-05-25T11:39:28.088Z,24.70
2018-05-25T11:41:55.737Z,24.10
2018-05-25T11:44:24.113Z,23.20
2018-05-25T11:46:52.485Z,23.10
2018-05-25T11:49:20.842Z,23.00
2018-05-25T11:51:48.479Z,23.00
2018-05-25T11:54:29.545Z,22.90
2018-05-25T11:56:57.199Z,22.70
2018-05-25T11:59:24.786Z,22.20
2018-05-25T12:01:55.891Z,21.90
2018-05-25T12:04:31.779Z,21.70
2018-05-25T12:06:59.415Z,21.80
2018-05-25T12:09:27.134Z,21.80
2018-05-25T12:11:54.793Z,21.80
2018-05-25T12:14:22.429Z,22.00
2018-05-25T12:16:50.057Z,22.10
2018-05-25T12:19:17.661Z,22.20
2018-05-25T12:21:45.287Z,22.40
2018-05-25T12:24:13.735Z,22.50
2018-05-25T12:26:42.137Z,22.70
2018-05-25T12:29:10.487Z,22.80
2018-05-25T12:31:38.871Z,23.00
2018-05-25T12:34:07.278Z,23.40
2018-05-25T12:36:35.652Z,23.90
2018-05-25T12:39:03.299Z,23.80
2018-05-25T12:41:30.935Z,25.00
2018-05-25T12:43:58.552Z,26.20
2018-05-25T12:46:26.168Z,27.20
2018-05-25T12:48:54.517Z,28.30
2018-05-25T12:51:22.105Z,28.20
2018-05-25T12:53:50.468Z,27.60
2018-05-25T12:56:18.103Z,26.60
2018-05-25T12:58:45.687Z,26.00
2018-05-25T13:01:20.797Z,26.10
2018-05-25T13:03:59.840Z,26.20
2018-05-25T13:06:27.464Z,27.50
2018-05-25T13:08:55.119Z,28.30
2018-05-25T13:11:22.758Z,28.10
2018-05-25T13:14:01.441Z,27.50
2018-05-25T13:16:29.045Z,27.50
2018-05-25T13:19:00.611Z,28.10
2018-05-25T13:21:31.481Z,28.60
2018-05-25T13:24:03.375Z,28.80
2018-05-25T13:26:31.877Z,29.80
2018-05-25T13:29:01.203Z,29.90
2018-05-25T13:31:28.806Z,29.90
2018-05-25T13:33:56.495Z,30.10
2018-05-25T13:36:24.977Z,30.40
2018-05-25T13:38:53.397Z,30.40
2018-05-25T13:41:21.012Z,30.40
2018-05-25T13:43:48.597Z,30.20
2018-05-25T13:46:16.971Z,29.50
2018-05-25T13:48:44.564Z,29.40
2018-05-25T13:51:12.219Z,28.80
2018-05-25T13:53:39.831Z,28.60
2018-05-25T13:56:07.508Z,29.20
2018-05-25T13:58:35.237Z,30.40
2018-05-25T14:01:03.561Z,30.40
2018-05-25T14:03:31.154Z,30.40
2018-05-25T14:05:58.746Z,30.90
2018-05-25T14:08:49.536Z,30.90
2018-05-25T14:11:17.189Z,30.50
2018-05-25T14:13:44.744Z,30.80
2018-05-25T14:16:12.371Z,30.70
2018-05-25T14:18:39.985Z,30.00
2018-05-25T14:21:07.579Z,30.50
2018-05-25T14:23:49.559Z,30.30
2018-05-25T14:26:17.167Z,30.20
2018-05-25T14:28:44.813Z,29.70
2018-05-25T14:31:12.457Z,29.80
2018-05-25T14:33:40.830Z,29.30
2018-05-25T14:36:09.214Z,29.30
2018-05-25T14:38:37.593Z,29.00
2018-05-25T14:41:10.981Z,29.00
2018-05-25T14:43:38.591Z,29.50
2018-05-25T14:46:13.715Z,29.20
2018-05-25T14:48:41.328Z,29.00
2018-05-25T14:51:09.020Z,29.00
2018-05-25T14:53:37.394Z,27.90
2018-05-25T14:56:05.767Z,27.80
2018-05-25T14:58:34.152Z,27.50
2018-05-25T15:01:03.786Z,27.50
2018-05-25T15:03:33.402Z,27.60
2018-05-25T15:06:01.002Z,28.10
2018-05-25T15:08:28.609Z,28.60
2018-05-25T15:10:56.241Z,28.20
2018-05-25T15:13:23.825Z,28.00
2018-05-25T15:15:51.451Z,27.70
2018-05-25T15:18:19.808Z,26.70
2018-05-25T15:20:47.410Z,26.60
2018-05-25T15:23:15.829Z,25.70
2018-05-25T15:25:43.462Z,25.60
2018-05-25T15:28:11.093Z,25.80
2018-05-25T15:30:38.709Z,25.80
2018-05-25T15:33:06.311Z,26.20
2018-05-25T15:35:38.474Z,26.20
2018-05-25T15:38:06.105Z,26.20
2018-05-25T15:40:39.507Z,26.20
2018-05-25T15:43:07.109Z,25.90
2018-05-25T15:45:34.717Z,25.40
2018-05-25T15:48:02.450Z,25.30
2018-05-25T15:50:30.062Z,25.30
2018-05-25T15:52:57.709Z,25.00
2018-05-25T15:55:25.387Z,24.80
2018-05-25T15:57:57.683Z,24.50
2018-05-25T16:00:36.587Z,24.60
2018-05-25T16:03:04.392Z,24.60
2018-05-25T16:05:32.767Z,24.70
2018-05-25T16:08:01.130Z,24.40
2018-05-25T16:10:31.871Z,24.40
2018-05-25T16:13:04.850Z,24.20
2018-05-25T16:15:34.199Z,24.10
2018-05-25T16:18:09.011Z,24.10
2018-05-25T16:20:36.690Z,24.10
2018-05-25T16:23:22.843Z,24.10
2018-05-25T16:25:50.468Z,23.80
2018-05-25T16:28:18.060Z,23.80
2018-05-25T16:30:45.657Z,23.80
2018-05-25T16:33:13.467Z,23.90
2018-05-25T16:35:41.090Z,24.10
2018-05-25T16:38:09.639Z,24.20
2018-05-25T16:40:37.229Z,24.20
2018-05-25T16:43:08.045Z,24.20
2018-05-25T16:45:36.429Z,24.70
2018-05-25T16:48:04.788Z,24.90
2018-05-25T16:50:33.136Z,24.70
2018-05-25T16:53:00.763Z,24.60
2018-05-25T16:55:32.894Z,24.60
2018-05-25T16:58:00.463Z,24.30
2018-05-25T17:00:28.082Z,24.10
2018-05-25T17:03:06.081Z,24.00
2018-05-25T17:05:33.706Z,24.00
2018-05-25T17:08:01.308Z,23.90
2018-05-25T17:10:28.881Z,23.80
2018-05-25T17:12:56.507Z,23.90
2018-05-25T17:15:24.081Z,23.70
2018-05-25T17:17:51.692Z,23.70
2018-05-25T17:20:20.061Z,23.60
2018-05-25T17:22:47.676Z,23.60
2018-05-25T17:25:15.288Z,23.50
2018-05-25T17:27:42.907Z,23.40
2018-05-25T17:30:10.519Z,23.30
2018-05-25T17:32:38.917Z,23.20
2018-05-25T17:35:06.531Z,23.20
2018-05-25T17:37:34.169Z,23.20
2018-05-25T17:40:01.803Z,23.10
2018-05-25T17:42:29.432Z,23.00
2018-05-25T17:44:57.039Z,22.80
2018-05-25T17:47:24.662Z,22.80
2018-05-25T17:49:53.193Z,22.70
2018-05-25T17:52:20.837Z,22.70
2018-05-25T17:54:48.487Z,22.60
2018-05-25T17:57:17.056Z,22.50
2018-05-25T17:59:45.436Z,22.50
2018-05-25T18:02:13.789Z,22.50
2018-05-25T18:04:41.394Z,22.50
2018-05-25T18:07:09.014Z,22.40
2018-05-25T18:09:37.616Z,22.30
2018-05-25T18:12:09.892Z,22.30
2018-05-25T18:14:38.265Z,22.20
2018-05-25T18:17:06.636Z,22.10
2018-05-25T18:19:35.038Z,22.00
2018-05-25T18:22:02.627Z,22.00
2018-05-25T18:24:30.246Z,22.00
2018-05-25T18:26:58.604Z,21.90
2018-05-25T18:29:26.213Z,21.90
2018-05-25T18:31:53.836Z,21.90
2018-05-25T18:34:21.428Z,21.80
2018-05-25T18:36:49.034Z,21.80
2018-05-25T18:39:16.605Z,21.70
2018-05-25T18:41:44.236Z,21.70
2018-05-25T18:44:11.832Z,21.60
2018-05-25T18:46:39.416Z,21.60
2018-05-25T18:49:07.780Z,21.50
2018-05-25T18:51:36.143Z,21.40
2018-05-25T18:54:15.650Z,21.40
2018-05-25T18:56:43.238Z,21.30
2018-05-25T18:59:10.854Z,21.30
2018-05-25T19:01:38.444Z,21.20
2018-05-25T19:04:06.076Z,21.20
2018-05-25T19:06:33.670Z,21.10
2018-05-25T19:09:01.254Z,21.00
2018-05-25T19:11:28.829Z,20.90
2018-05-25T19:13:57.145Z,20.80
2018-05-25T19:16:24.734Z,20.80
2018-05-25T19:18:52.339Z,20.80
2018-05-25T19:21:20.702Z,20.70
2018-05-25T19:23:49.066Z,20.60
2018-05-25T19:26:16.712Z,20.60
2018-05-25T19:28:44.324Z,20.60
2018-05-25T19:31:11.950Z,20.60
2018-05-25T19:33:39.651Z,20.50
2018-05-25T19:36:10.659Z,20.40
2018-05-25T19:38:39.024Z,20.40
2018-05-25T19:41:07.410Z,20.30
2018-05-25T19:43:35.054Z,20.30
2018-05-25T19:46:02.698Z,20.20
2018-05-25T19:48:30.294Z,20.20
2018-05-25T19:50:57.896Z,20.10
2018-05-25T19:53:25.526Z,20.10
2018-05-25T19:55:53.896Z,20.00
2018-05-25T19:58:21.776Z,20.00
2018-05-25T20:00:50.179Z,19.90
2018-05-25T20:03:17.766Z,19.90
2018-05-25T20:05:48.714Z,19.90
2018-05-25T20:08:16.432Z,19.80
2018-05-25T20:10:44.041Z,19.70
2018-05-25T20:13:11.696Z,19.70
2018-05-25T20:15:45.570Z,19.60
2018-05-25T20:18:13.183Z,19.60
2018-05-25T20:20:40.737Z,19.60
2018-05-25T20:23:08.399Z,19.50
2018-05-25T20:25:35.932Z,19.50
2018-05-25T20:28:03.548Z,19.50
2018-05-25T20:30:31.102Z,19.40
2018-05-25T20:32:59.488Z,19.40
2018-05-25T20:35:27.857Z,19.30
2018-05-25T20:38:08.966Z,19.30
2018-05-25T20:40:36.537Z,19.30
2018-05-25T20:43:04.130Z,19.20
2018-05-25T20:45:31.721Z,19.20
2018-05-25T20:47:59.331Z,19.10
2018-05-25T20:50:26.910Z,19.10
2018-05-25T20:52:54.663Z,19.00
2018-05-25T20:55:22.260Z,19.00
2018-05-25T20:57:49.848Z,19.00
2018-05-25T21:00:17.428Z,19.00
2018-05-25T21:02:45.047Z,18.90
2018-05-25T21:05:23.016Z,18.90
2018-05-25T21:07:50.638Z,18.80
2018-05-25T21:10:18.238Z,18.80
2018-05-25T21:12:45.856Z,18.70
2018-05-25T21:15:13.473Z,18.70
2018-05-25T21:17:41.112Z,18.70
2018-05-25T21:20:08.713Z,18.60
2018-05-25T21:22:36.542Z,18.60
2018-05-25T21:25:04.198Z,18.60
2018-05-25T21:27:31.802Z,18.60
2018-05-25T21:30:01.134Z,18.50
2018-05-25T21:32:28.674Z,18.50
2018-05-25T21:34:57.011Z,18.50
2018-05-25T21:37:24.634Z,18.40
2018-05-25T21:39:52.220Z,18.40
2018-05-25T21:42:19.812Z,18.40
2018-05-25T21:44:47.425Z,18.30
2018-05-25T21:47:14.998Z,18.30
2018-05-25T21:49:42.632Z,18.30
2018-05-25T21:52:10.230Z,18.30
2018-05-25T21:54:37.877Z,18.20
2018-05-25T21:57:05.469Z,18.20
2018-05-25T21:59:33.095Z,18.20
2018-05-25T22:02:00.758Z,18.10
2018-05-25T22:04:28.388Z,18.10
2018-05-25T22:06:56.035Z,18.10
2018-05-25T22:09:24.579Z,18.00
2018-05-25T22:11:53.056Z,18.00
2018-05-25T22:14:20.599Z,18.00
2018-05-25T22:16:48.215Z,17.90
2018-05-25T22:19:15.753Z,17.90
2018-05-25T22:21:43.397Z,17.90
2018-05-25T22:24:11.023Z,17.90
2018-05-25T22:26:38.607Z,17.80
2018-05-25T22:29:06.187Z,17.80
2018-05-25T22:31:33.789Z,17.80
2018-05-25T22:34:02.144Z,17.70
2018-05-25T22:36:29.727Z,17.70
2018-05-25T22:38:58.109Z,17.70
2018-05-25T22:41:26.502Z,17.70
2018-05-25T22:44:05.966Z,17.70
2018-05-25T22:46:45.450Z,17.70
2018-05-25T22:49:24.878Z,17.70
2018-05-25T22:52:09.365Z,17.60
2018-05-25T22:54:42.732Z,17.50
2018-05-25T22:57:10.335Z,17.50
2018-05-25T22:59:37.952Z,17.50
2018-05-25T23:02:05.590Z,17.50
2018-05-25T23:04:33.212Z,17.50
2018-05-25T23:07:00.838Z,17.40
2018-05-25T23:09:28.467Z,17.40
2018-05-25T23:11:56.154Z,17.40
2018-05-25T23:14:23.819Z,17.30
2018-05-25T23:16:51.429Z,17.30
2018-05-25T23:19:19.060Z,17.30
2018-05-25T23:21:47.475Z,17.30
2018-05-25T23:24:15.099Z,17.20
2018-05-25T23:26:42.725Z,17.20
2018-05-25T23:29:10.345Z,17.20
2018-05-25T23:31:51.737Z,17.10
2018-05-25T23:34:19.356Z,17.10
2018-05-25T23:36:48.429Z,17.00
2018-05-25T23:39:16.037Z,17.00
2018-05-25T23:41:44.397Z,17.10
2018-05-25T23:44:12.011Z,17.00
2018-05-25T23:46:39.696Z,17.10
2018-05-25T23:49:07.316Z,17.00
2018-05-25T23:51:34.957Z,17.00
2018-05-25T23:54:03.379Z,17.00
2018-05-25T23:56:30.967Z,17.00
2018-05-25T23:58:58.587Z,16.90
